sensor_id;sensor_type;location;lat;lon;timestamp;pressure;altitude;pressure_sealevel;temperature;humidity
27958;BME280;15295;42.658;23.374;2023-03-15T00:01:11;93614.81;;;12.22;28.84
27958;BME280;15295;42.658;23.374;2023-03-15T00:03:45;93615.03;;;12.28;28.77
27958;BME280;15295;42.658;23.374;2023-03-15T00:06:12;93591.34;;;12.21;28.31
27958;BME280;15295;42.658;23.374;2023-03-15T00:08:38;93590.00;;;12.13;28.26
27958;BME280;15295;42.658;23.374;2023-03-15T00:11:04;93576.56;;;12.03;28.44
27958;BME280;15295;42.658;23.374;2023-03-15T00:13:30;93580.94;;;12.00;28.45
27958;BME280;15295;42.658;23.374;2023-03-15T00:15:58;93590.38;;;11.99;28.53
27958;BME280;15295;42.658;23.374;2023-03-15T00:18:24;93597.88;;;12.11;28.26
27958;BME280;15295;42.658;23.374;2023-03-15T00:20:50;93581.22;;;11.90;28.32
27958;BME280;15295;42.658;23.374;2023-03-15T00:23:17;93596.25;;;11.98;28.31
27958;BME280;15295;42.658;23.374;2023-03-15T00:25:46;93603.09;;;12.06;28.29
27958;BME280;15295;42.658;23.374;2023-03-15T00:28:12;93593.00;;;12.03;28.21
27958;BME280;15295;42.658;23.374;2023-03-15T00:30:40;93601.28;;;12.15;28.21
27958;BME280;15295;42.658;23.374;2023-03-15T00:33:05;93589.75;;;12.08;28.19
27958;BME280;15295;42.658;23.374;2023-03-15T00:35:32;93591.94;;;12.29;28.13
27958;BME280;15295;42.658;23.374;2023-03-15T00:37:59;93577.13;;;12.26;28.18
27958;BME280;15295;42.658;23.374;2023-03-15T00:40:27;93565.72;;;12.28;28.09
27958;BME280;15295;42.658;23.374;2023-03-15T00:42:52;93558.19;;;12.32;27.96
27958;BME280;15295;42.658;23.374;2023-03-15T00:45:20;93571.84;;;12.48;27.76
27958;BME280;15295;42.658;23.374;2023-03-15T00:47:51;93578.09;;;12.49;27.60
27958;BME280;15295;42.658;23.374;2023-03-15T00:50:18;93577.06;;;12.43;27.93
27958;BME280;15295;42.658;23.374;2023-03-15T00:52:44;93585.84;;;12.37;31.53
27958;BME280;15295;42.658;23.374;2023-03-15T00:55:12;93570.94;;;12.38;31.53
27958;BME280;15295;42.658;23.374;2023-03-15T00:57:40;93570.59;;;12.36;32.17
27958;BME280;15295;42.658;23.374;2023-03-15T01:00:11;93559.06;;;12.29;32.20
27958;BME280;15295;42.658;23.374;2023-03-15T01:02:36;93556.75;;;12.27;32.22
27958;BME280;15295;42.658;23.374;2023-03-15T01:05:06;93563.78;;;12.28;32.37
27958;BME280;15295;42.658;23.374;2023-03-15T01:07:32;93546.31;;;12.22;32.37
27958;BME280;15295;42.658;23.374;2023-03-15T01:09:59;93546.00;;;12.20;32.48
27958;BME280;15295;42.658;23.374;2023-03-15T01:12:26;93548.53;;;12.27;32.48
27958;BME280;15295;42.658;23.374;2023-03-15T01:14:51;93538.63;;;12.17;32.68
27958;BME280;15295;42.658;23.374;2023-03-15T01:17:18;93542.72;;;12.25;32.46
27958;BME280;15295;42.658;23.374;2023-03-15T01:19:43;93545.03;;;12.27;32.42
27958;BME280;15295;42.658;23.374;2023-03-15T01:22:09;93529.00;;;12.25;32.82
27958;BME280;15295;42.658;23.374;2023-03-15T01:24:34;93537.03;;;12.32;32.99
27958;BME280;15295;42.658;23.374;2023-03-15T01:27:02;93537.81;;;12.33;33.08
27958;BME280;15295;42.658;23.374;2023-03-15T01:29:27;93536.28;;;12.32;33.00
27958;BME280;15295;42.658;23.374;2023-03-15T01:31:53;93534.97;;;12.36;32.87
27958;BME280;15295;42.658;23.374;2023-03-15T01:34:18;93530.56;;;12.26;32.85
27958;BME280;15295;42.658;23.374;2023-03-15T01:36:43;93518.94;;;12.22;33.00
27958;BME280;15295;42.658;23.374;2023-03-15T01:39:10;93520.28;;;12.30;32.90
27958;BME280;15295;42.658;23.374;2023-03-15T01:41:39;93521.28;;;12.36;32.78
27958;BME280;15295;42.658;23.374;2023-03-15T01:44:11;93495.28;;;12.28;32.89
27958;BME280;15295;42.658;23.374;2023-03-15T01:46:39;93517.13;;;12.45;32.72
27958;BME280;15295;42.658;23.374;2023-03-15T01:49:16;93519.13;;;12.44;32.72
27958;BME280;15295;42.658;23.374;2023-03-15T01:51:59;93521.75;;;12.48;32.91
27958;BME280;15295;42.658;23.374;2023-03-15T01:54:38;93510.47;;;12.46;32.80
27958;BME280;15295;42.658;23.374;2023-03-15T01:57:08;93499.34;;;12.36;33.00
27958;BME280;15295;42.658;23.374;2023-03-15T01:59:43;93493.22;;;12.32;32.96
27958;BME280;15295;42.658;23.374;2023-03-15T02:02:10;93493.81;;;12.40;32.86
27958;BME280;15295;42.658;23.374;2023-03-15T02:04:55;93480.28;;;12.33;32.93
27958;BME280;15295;42.658;23.374;2023-03-15T02:07:23;93492.78;;;12.34;33.05
27958;BME280;15295;42.658;23.374;2023-03-15T02:09:59;93497.50;;;12.33;33.40
27958;BME280;15295;42.658;23.374;2023-03-15T02:12:27;93454.84;;;12.20;33.24
27958;BME280;15295;42.658;23.374;2023-03-15T02:14:52;93482.06;;;12.39;33.27
27958;BME280;15295;42.658;23.374;2023-03-15T02:17:21;93472.63;;;12.40;33.13
27958;BME280;15295;42.658;23.374;2023-03-15T02:27:40;93449.97;;;12.40;31.24
27958;BME280;15295;42.658;23.374;2023-03-15T02:30:06;93439.97;;;12.33;30.92
27958;BME280;15295;42.658;23.374;2023-03-15T02:32:32;93461.59;;;12.44;30.48
27958;BME280;15295;42.658;23.374;2023-03-15T02:34:58;93450.06;;;12.36;30.45
27958;BME280;15295;42.658;23.374;2023-03-15T02:37:23;93451.59;;;12.37;30.15
27958;BME280;15295;42.658;23.374;2023-03-15T02:39:49;93458.81;;;12.31;30.44
27958;BME280;15295;42.658;23.374;2023-03-15T02:42:15;93464.19;;;12.35;30.62
27958;BME280;15295;42.658;23.374;2023-03-15T02:44:43;93465.72;;;12.36;30.61
27958;BME280;15295;42.658;23.374;2023-03-15T02:47:19;93455.41;;;12.27;31.00
27958;BME280;15295;42.658;23.374;2023-03-15T02:49:49;93449.47;;;12.16;31.15
27958;BME280;15295;42.658;23.374;2023-03-15T02:52:24;93459.34;;;12.26;31.12
27958;BME280;15295;42.658;23.374;2023-03-15T02:54:50;93453.22;;;12.22;31.82
27958;BME280;15295;42.658;23.374;2023-03-15T02:57:17;93458.22;;;12.11;31.66
27958;BME280;15295;42.658;23.374;2023-03-15T02:59:43;93460.38;;;12.04;31.96
27958;BME280;15295;42.658;23.374;2023-03-15T03:02:09;93454.31;;;11.96;32.09
27958;BME280;15295;42.658;23.374;2023-03-15T03:04:38;93400.38;;;11.52;31.92
27958;BME280;15295;42.658;23.374;2023-03-15T03:07:04;93431.78;;;11.76;31.66
27958;BME280;15295;42.658;23.374;2023-03-15T03:09:29;93441.44;;;11.81;31.54
27958;BME280;15295;42.658;23.374;2023-03-15T03:11:55;93430.78;;;11.70;31.57
27958;BME280;15295;42.658;23.374;2023-03-15T03:14:20;93434.63;;;11.73;31.52
27958;BME280;15295;42.658;23.374;2023-03-15T03:16:49;93428.16;;;11.67;31.52
27958;BME280;15295;42.658;23.374;2023-03-15T03:19:15;93421.88;;;11.66;31.65
27958;BME280;15295;42.658;23.374;2023-03-15T03:21:52;93437.38;;;11.73;31.56
27958;BME280;15295;42.658;23.374;2023-03-15T03:24:18;93435.16;;;11.68;31.68
27958;BME280;15295;42.658;23.374;2023-03-15T03:26:44;93424.56;;;11.53;31.71
27958;BME280;15295;42.658;23.374;2023-03-15T03:29:13;93409.59;;;11.42;31.87
27958;BME280;15295;42.658;23.374;2023-03-15T03:31:47;93420.09;;;11.59;32.01
27958;BME280;15295;42.658;23.374;2023-03-15T03:34:12;93414.72;;;11.56;32.08
27958;BME280;15295;42.658;23.374;2023-03-15T03:36:40;93406.84;;;11.58;31.95
27958;BME280;15295;42.658;23.374;2023-03-15T03:39:05;93407.78;;;11.68;31.80
27958;BME280;15295;42.658;23.374;2023-03-15T03:41:31;93397.44;;;11.59;32.17
27958;BME280;15295;42.658;23.374;2023-03-15T03:43:56;93400.53;;;11.61;32.20
27958;BME280;15295;42.658;23.374;2023-03-15T03:46:22;93405.13;;;11.64;32.37
27958;BME280;15295;42.658;23.374;2023-03-15T03:48:47;93405.13;;;11.64;32.56
27958;BME280;15295;42.658;23.374;2023-03-15T03:51:13;93401.72;;;11.60;32.36
27958;BME280;15295;42.658;23.374;2023-03-15T03:53:38;93408.91;;;11.70;32.45
27958;BME280;15295;42.658;23.374;2023-03-15T03:56:04;93389.66;;;11.57;32.67
27958;BME280;15295;42.658;23.374;2023-03-15T03:58:30;93401.19;;;11.65;33.20
27958;BME280;15295;42.658;23.374;2023-03-15T04:00:56;93379.69;;;11.51;33.60
27958;BME280;15295;42.658;23.374;2023-03-15T04:03:21;93406.66;;;11.65;33.17
27958;BME280;15295;42.658;23.374;2023-03-15T04:06:00;93374.66;;;11.49;33.52
27958;BME280;15295;42.658;23.374;2023-03-15T04:08:26;93397.19;;;11.70;32.82
27958;BME280;15295;42.658;23.374;2023-03-15T04:10:53;93372.69;;;11.50;32.68
27958;BME280;15295;42.658;23.374;2023-03-15T04:13:20;93381.00;;;11.59;32.73
27958;BME280;15295;42.658;23.374;2023-03-15T04:15:46;93384.03;;;11.48;32.67
27958;BME280;15295;42.658;23.374;2023-03-15T04:18:13;93373.38;;;11.38;33.21
27958;BME280;15295;42.658;23.374;2023-03-15T04:20:38;93378.91;;;11.22;33.81
27958;BME280;15295;42.658;23.374;2023-03-15T04:23:21;93362.75;;;10.95;34.50
27958;BME280;15295;42.658;23.374;2023-03-15T04:25:52;93354.16;;;10.80;34.68
27958;BME280;15295;42.658;23.374;2023-03-15T04:28:22;93360.72;;;10.83;34.98
27958;BME280;15295;42.658;23.374;2023-03-15T04:30:48;93381.38;;;11.00;34.88
27958;BME280;15295;42.658;23.374;2023-03-15T04:33:15;93370.03;;;11.02;34.79
27958;BME280;15295;42.658;23.374;2023-03-15T04:35:41;93375.41;;;11.05;34.84
27958;BME280;15295;42.658;23.374;2023-03-15T04:38:08;93369.84;;;11.09;34.99
27958;BME280;15295;42.658;23.374;2023-03-15T04:40:34;93362.50;;;11.06;34.70
27958;BME280;15295;42.658;23.374;2023-03-15T04:43:03;93377.72;;;11.07;34.65
27958;BME280;15295;42.658;23.374;2023-03-15T04:45:32;93377.22;;;11.12;34.63
27958;BME280;15295;42.658;23.374;2023-03-15T04:48:00;93339.81;;;10.93;34.51
27958;BME280;15295;42.658;23.374;2023-03-15T04:50:29;93348.25;;;10.98;34.23
27958;BME280;15295;42.658;23.374;2023-03-15T04:52:59;93383.47;;;11.25;34.33
27958;BME280;15295;42.658;23.374;2023-03-15T04:55:25;93378.91;;;11.22;34.48
27958;BME280;15295;42.658;23.374;2023-03-15T04:57:51;93386.16;;;11.28;34.47
27958;BME280;15295;42.658;23.374;2023-03-15T05:00:17;93385.59;;;11.33;34.75
27958;BME280;15295;42.658;23.374;2023-03-15T05:03:20;93373.31;;;11.41;37.39
27958;BME280;15295;42.658;23.374;2023-03-15T05:06:12;93378.28;;;11.75;39.03
27958;BME280;15295;42.658;23.374;2023-03-15T05:08:41;93369.97;;;11.91;36.52
27958;BME280;15295;42.658;23.374;2023-03-15T05:11:15;93364.06;;;11.80;35.10
27958;BME280;15295;42.658;23.374;2023-03-15T05:13:45;93321.22;;;11.45;35.19
27958;BME280;15295;42.658;23.374;2023-03-15T05:16:15;93325.28;;;11.53;34.79
27958;BME280;15295;42.658;23.374;2023-03-15T05:18:42;93373.47;;;11.79;34.93
27958;BME280;15295;42.658;23.374;2023-03-15T05:21:11;93312.03;;;11.39;34.89
27958;BME280;15295;42.658;23.374;2023-03-15T05:34:02;93357.78;;;11.67;35.23
27958;BME280;15295;42.658;23.374;2023-03-15T05:36:42;93332.53;;;11.59;35.28
27958;BME280;15295;42.658;23.374;2023-03-15T05:39:09;93286.53;;;11.42;34.92
27958;BME280;15295;42.658;23.374;2023-03-15T05:41:36;93324.44;;;11.56;34.86
27958;BME280;15295;42.658;23.374;2023-03-15T05:44:04;93341.75;;;11.65;34.92
27958;BME280;15295;42.658;23.374;2023-03-15T05:46:52;93323.47;;;11.62;35.04
27958;BME280;15295;42.658;23.374;2023-03-15T05:49:19;93327.06;;;11.76;34.01
27958;BME280;15295;42.658;23.374;2023-03-15T05:51:46;93357.97;;;12.01;33.56
27958;BME280;15295;42.658;23.374;2023-03-15T05:54:11;93319.09;;;11.65;33.10
27958;BME280;15295;42.658;23.374;2023-03-15T05:56:37;93370.22;;;11.97;33.16
27958;BME280;15295;42.658;23.374;2023-03-15T05:59:02;93356.50;;;11.84;33.06
27958;BME280;15295;42.658;23.374;2023-03-15T06:01:29;93330.75;;;11.69;33.02
27958;BME280;15295;42.658;23.374;2023-03-15T06:03:59;93319.09;;;11.65;32.89
27958;BME280;15295;42.658;23.374;2023-03-15T06:06:27;93348.31;;;11.84;32.53
27958;BME280;15295;42.658;23.374;2023-03-15T06:08:53;93365.09;;;11.99;32.76
27958;BME280;15295;42.658;23.374;2023-03-15T06:11:19;93336.81;;;11.89;32.37
27958;BME280;15295;42.658;23.374;2023-03-15T06:13:47;93366.09;;;12.17;32.56
27958;BME280;15295;42.658;23.374;2023-03-15T06:16:12;93365.44;;;12.13;32.52
27958;BME280;15295;42.658;23.374;2023-03-15T06:18:38;93358.31;;;12.03;32.95
27958;BME280;15295;42.658;23.374;2023-03-15T06:21:05;93358.19;;;11.94;33.22
27958;BME280;15295;42.658;23.374;2023-03-15T06:23:32;93319.81;;;11.53;33.53
27958;BME280;15295;42.658;23.374;2023-03-15T06:25:57;93370.69;;;11.95;33.67
27958;BME280;15295;42.658;23.374;2023-03-15T06:28:23;93369.28;;;12.16;33.70
27958;BME280;15295;42.658;23.374;2023-03-15T06:30:49;93347.25;;;12.19;33.57
27958;BME280;15295;42.658;23.374;2023-03-15T06:33:14;93356.81;;;12.40;33.63
27958;BME280;15295;42.658;23.374;2023-03-15T06:35:40;93320.44;;;12.39;33.77
27958;BME280;15295;42.658;23.374;2023-03-15T06:38:10;93287.25;;;12.25;33.83
27958;BME280;15295;42.658;23.374;2023-03-15T06:40:38;93341.53;;;12.77;33.46
27958;BME280;15295;42.658;23.374;2023-03-15T06:43:03;93360.81;;;13.11;33.24
27958;BME280;15295;42.658;23.374;2023-03-15T06:45:37;93357.94;;;13.27;33.17
27958;BME280;15295;42.658;23.374;2023-03-15T06:48:04;93353.63;;;13.60;43.55
27958;BME280;15295;42.658;23.374;2023-03-15T06:50:29;93325.09;;;14.01;36.88
27958;BME280;15295;42.658;23.374;2023-03-15T06:52:55;93348.38;;;14.40;33.65
27958;BME280;15295;42.658;23.374;2023-03-15T06:55:21;93365.28;;;14.60;32.63
27958;BME280;15295;42.658;23.374;2023-03-15T06:57:47;93344.53;;;14.68;32.60
27958;BME280;15295;42.658;23.374;2023-03-15T07:00:13;93358.38;;;14.86;32.10
27958;BME280;15295;42.658;23.374;2023-03-15T07:02:38;93320.56;;;14.68;31.56
27958;BME280;15295;42.658;23.374;2023-03-15T07:05:06;93341.41;;;14.88;31.43
27958;BME280;15295;42.658;23.374;2023-03-15T07:07:31;93339.75;;;14.99;31.81
27958;BME280;15295;42.658;23.374;2023-03-15T07:12:35;93294.06;;;15.02;30.83
27958;BME280;15295;42.658;23.374;2023-03-15T07:26:03;93348.13;;;15.99;29.10
27958;BME280;15295;42.658;23.374;2023-03-15T07:28:29;93315.84;;;15.72;28.83
27958;BME280;15295;42.658;23.374;2023-03-15T07:31:02;93343.03;;;16.06;28.53
27958;BME280;15295;42.658;23.374;2023-03-15T07:33:30;93339.19;;;16.22;28.28
27958;BME280;15295;42.658;23.374;2023-03-15T07:35:58;93316.72;;;16.05;27.80
27958;BME280;15295;42.658;23.374;2023-03-15T07:38:26;93339.22;;;16.04;28.13
27958;BME280;15295;42.658;23.374;2023-03-15T07:40:55;93361.53;;;16.24;28.29
27958;BME280;15295;42.658;23.374;2023-03-15T07:43:21;93363.03;;;16.52;28.72
27958;BME280;15295;42.658;23.374;2023-03-15T07:45:51;93337.78;;;16.86;28.69
27958;BME280;15295;42.658;23.374;2023-03-15T07:48:16;93349.78;;;17.07;27.97
27958;BME280;15295;42.658;23.374;2023-03-15T07:50:41;93367.34;;;17.28;27.32
27958;BME280;15295;42.658;23.374;2023-03-15T07:53:07;93345.75;;;17.41;27.58
27958;BME280;15295;42.658;23.374;2023-03-15T07:55:40;93342.28;;;17.64;26.69
27958;BME280;15295;42.658;23.374;2023-03-15T07:58:06;93326.03;;;17.57;26.38
27958;BME280;15295;42.658;23.374;2023-03-15T08:00:31;93340.09;;;17.68;26.38
27958;BME280;15295;42.658;23.374;2023-03-15T08:02:58;93338.25;;;17.65;26.97
27958;BME280;15295;42.658;23.374;2023-03-15T08:05:24;93338.84;;;17.69;27.25
27958;BME280;15295;42.658;23.374;2023-03-15T08:07:50;93327.50;;;17.67;27.22
27958;BME280;15295;42.658;23.374;2023-03-15T08:10:16;93331.91;;;17.73;27.27
27958;BME280;15295;42.658;23.374;2023-03-15T08:12:42;93334.38;;;17.71;27.64
27958;BME280;15295;42.658;23.374;2023-03-15T08:15:12;93333.28;;;17.93;27.37
27958;BME280;15295;42.658;23.374;2023-03-15T08:17:38;93324.81;;;17.96;27.21
27958;BME280;15295;42.658;23.374;2023-03-15T08:20:05;93309.47;;;18.10;27.40
27958;BME280;15295;42.658;23.374;2023-03-15T08:22:34;93306.91;;;18.35;27.12
27958;BME280;15295;42.658;23.374;2023-03-15T08:25:00;93311.50;;;18.53;25.92
27958;BME280;15295;42.658;23.374;2023-03-15T08:27:26;93310.44;;;18.65;27.00
27958;BME280;15295;42.658;23.374;2023-03-15T08:29:57;93322.63;;;18.88;26.24
27958;BME280;15295;42.658;23.374;2023-03-15T08:32:24;93299.78;;;18.93;25.67
27958;BME280;15295;42.658;23.374;2023-03-15T08:34:52;93316.16;;;19.11;25.47
27958;BME280;15295;42.658;23.374;2023-03-15T08:37:17;93310.94;;;18.98;25.03
27958;BME280;15295;42.658;23.374;2023-03-15T08:39:43;93304.47;;;18.87;25.32
27958;BME280;15295;42.658;23.374;2023-03-15T08:42:10;93326.59;;;19.01;26.34
27958;BME280;15295;42.658;23.374;2023-03-15T08:44:35;93316.06;;;19.20;25.32
27958;BME280;15295;42.658;23.374;2023-03-15T08:47:01;93304.03;;;19.43;25.13
27958;BME280;15295;42.658;23.374;2023-03-15T08:49:26;93308.06;;;19.42;24.64
27958;BME280;15295;42.658;23.374;2023-03-15T08:51:52;93308.19;;;19.18;25.06
27958;BME280;15295;42.658;23.374;2023-03-15T08:54:17;93307.50;;;19.03;24.80
27958;BME280;15295;42.658;23.374;2023-03-15T08:56:43;93318.88;;;18.91;24.92
27958;BME280;15295;42.658;23.374;2023-03-15T08:59:09;93305.28;;;18.73;25.03
27958;BME280;15295;42.658;23.374;2023-03-15T09:01:35;93317.41;;;18.61;25.10
27958;BME280;15295;42.658;23.374;2023-03-15T09:04:02;93324.53;;;18.67;24.99
27958;BME280;15295;42.658;23.374;2023-03-15T09:06:30;93324.56;;;18.82;24.89
27958;BME280;15295;42.658;23.374;2023-03-15T09:09:00;93318.03;;;18.85;24.88
27958;BME280;15295;42.658;23.374;2023-03-15T09:11:26;93320.34;;;18.72;24.98
27958;BME280;15295;42.658;23.374;2023-03-15T09:13:52;93321.59;;;18.71;25.12
27958;BME280;15295;42.658;23.374;2023-03-15T09:16:24;93301.56;;;18.61;25.28
27958;BME280;15295;42.658;23.374;2023-03-15T09:18:50;93315.03;;;18.68;25.77
27958;BME280;15295;42.658;23.374;2023-03-15T09:21:15;93319.41;;;18.75;25.26
27958;BME280;15295;42.658;23.374;2023-03-15T09:23:41;93309.22;;;18.52;25.27
27958;BME280;15295;42.658;23.374;2023-03-15T09:26:12;93307.66;;;18.36;25.46
27958;BME280;15295;42.658;23.374;2023-03-15T09:28:38;93315.19;;;18.35;25.39
27958;BME280;15295;42.658;23.374;2023-03-15T09:31:04;93308.72;;;18.24;25.75
27958;BME280;15295;42.658;23.374;2023-03-15T09:33:30;93307.09;;;18.17;25.68
27958;BME280;15295;42.658;23.374;2023-03-15T09:36:04;93308.31;;;18.16;25.77
27958;BME280;15295;42.658;23.374;2023-03-15T09:38:30;93311.28;;;18.27;25.98
27958;BME280;15295;42.658;23.374;2023-03-15T09:40:57;93292.50;;;18.31;25.86
27958;BME280;15295;42.658;23.374;2023-03-15T09:44:08;93288.22;;;18.30;25.84
27958;BME280;15295;42.658;23.374;2023-03-15T09:46:37;93271.25;;;18.23;25.62
27958;BME280;15295;42.658;23.374;2023-03-15T09:49:18;93288.03;;;18.19;25.82
27958;BME280;15295;42.658;23.374;2023-03-15T09:54:43;93285.06;;;18.23;25.90
27958;BME280;15295;42.658;23.374;2023-03-15T09:57:18;93284.88;;;18.26;26.07
27958;BME280;15295;42.658;23.374;2023-03-15T09:59:49;93277.34;;;18.12;26.41
27958;BME280;15295;42.658;23.374;2023-03-15T10:02:26;93276.50;;;18.21;26.05
27958;BME280;15295;42.658;23.374;2023-03-15T10:04:56;93268.84;;;18.16;26.07
27958;BME280;15295;42.658;23.374;2023-03-15T10:07:24;93286.00;;;18.20;26.13
27958;BME280;15295;42.658;23.374;2023-03-15T10:09:52;93267.91;;;18.19;26.13
27958;BME280;15295;42.658;23.374;2023-03-15T10:12:28;93275.72;;;18.20;26.22
27958;BME280;15295;42.658;23.374;2023-03-15T10:21:00;93275.22;;;18.07;26.05
27958;BME280;15295;42.658;23.374;2023-03-15T10:23:48;93273.44;;;18.04;25.85
27958;BME280;15295;42.658;23.374;2023-03-15T10:26:24;93287.63;;;18.12;26.15
27958;BME280;15295;42.658;23.374;2023-03-15T10:28:52;93283.81;;;18.09;26.10
27958;BME280;15295;42.658;23.374;2023-03-15T10:31:21;93272.47;;;18.07;26.02
27958;BME280;15295;42.658;23.374;2023-03-15T10:33:48;93254.75;;;17.85;26.35
27958;BME280;15295;42.658;23.374;2023-03-15T10:36:17;93276.50;;;18.06;26.16
27958;BME280;15295;42.658;23.374;2023-03-15T10:38:44;93260.06;;;17.88;26.15
27958;BME280;15295;42.658;23.374;2023-03-15T10:41:12;93272.59;;;17.98;26.35
27958;BME280;15295;42.658;23.374;2023-03-15T10:43:39;93276.28;;;17.95;26.62
27958;BME280;15295;42.658;23.374;2023-03-15T10:46:24;93279.41;;;17.88;26.39
27958;BME280;15295;42.658;23.374;2023-03-15T10:49:31;93271.31;;;17.85;26.38
27958;BME280;15295;42.658;23.374;2023-03-15T10:51:59;93271.69;;;17.78;26.49
27958;BME280;15295;42.658;23.374;2023-03-15T10:54:25;93278.63;;;17.73;26.69
27958;BME280;15295;42.658;23.374;2023-03-15T10:57:12;93273.38;;;17.75;26.47
27958;BME280;15295;42.658;23.374;2023-03-15T10:59:53;93262.72;;;17.68;26.39
27958;BME280;15295;42.658;23.374;2023-03-15T11:02:22;93273.28;;;17.69;26.46
27958;BME280;15295;42.658;23.374;2023-03-15T11:07:27;93260.63;;;17.63;26.66
27958;BME280;15295;42.658;23.374;2023-03-15T11:10:04;93248.41;;;17.55;26.70
27958;BME280;15295;42.658;23.374;2023-03-15T11:12:32;93260.81;;;17.59;26.64
27958;BME280;15295;42.658;23.374;2023-03-15T11:15:03;93262.59;;;17.62;26.56
27958;BME280;15295;42.658;23.374;2023-03-15T11:17:33;93238.44;;;17.57;26.43
27958;BME280;15295;42.658;23.374;2023-03-15T11:20:01;93249.66;;;17.68;26.50
27958;BME280;15295;42.658;23.374;2023-03-15T11:22:38;93261.75;;;17.71;26.83
27958;BME280;15295;42.658;23.374;2023-03-15T11:25:13;93250.72;;;17.71;26.37
27958;BME280;15295;42.658;23.374;2023-03-15T11:27:41;93249.00;;;17.59;26.71
27958;BME280;15295;42.658;23.374;2023-03-15T11:30:20;93265.22;;;17.66;26.47
27958;BME280;15295;42.658;23.374;2023-03-15T11:32:49;93253.97;;;17.69;26.49
27958;BME280;15295;42.658;23.374;2023-03-15T11:35:28;93251.56;;;17.77;26.88
27958;BME280;15295;42.658;23.374;2023-03-15T11:38:22;93246.81;;;17.92;26.38
27958;BME280;15295;42.658;23.374;2023-03-15T11:40:59;93239.41;;;17.98;26.33
27958;BME280;15295;42.658;23.374;2023-03-15T11:46:35;93248.16;;;17.97;26.40
27958;BME280;15295;42.658;23.374;2023-03-15T11:52:16;93235.97;;;18.03;26.21
27958;BME280;15295;42.658;23.374;2023-03-15T11:54:43;93229.50;;;17.92;26.25
27958;BME280;15295;42.658;23.374;2023-03-15T12:00:59;93246.94;;;17.98;26.35
27958;BME280;15295;42.658;23.374;2023-03-15T12:03:30;93233.41;;;17.85;26.39
27958;BME280;15295;42.658;23.374;2023-03-15T12:11:54;93210.03;;;18.01;26.06
27958;BME280;15295;42.658;23.374;2023-03-15T12:14:05;93220.81;;;18.13;26.29
27958;BME280;15295;42.658;23.374;2023-03-15T12:16:44;93221.94;;;18.21;26.23
27958;BME280;15295;42.658;23.374;2023-03-15T12:19:18;93215.66;;;18.21;26.05
27958;BME280;15295;42.658;23.374;2023-03-15T12:21:52;93218.13;;;18.33;26.22
27958;BME280;15295;42.658;23.374;2023-03-15T12:24:26;93215.44;;;18.39;25.98
27958;BME280;15295;42.658;23.374;2023-03-15T12:27:01;93212.50;;;18.28;26.11
27958;BME280;15295;42.658;23.374;2023-03-15T12:29:30;93210.91;;;18.21;26.13
27958;BME280;15295;42.658;23.374;2023-03-15T12:32:10;93212.97;;;18.26;26.18
27958;BME280;15295;42.658;23.374;2023-03-15T12:34:52;93205.38;;;18.21;26.20
27958;BME280;15295;42.658;23.374;2023-03-15T12:37:21;93206.13;;;18.22;26.34
27958;BME280;15295;42.658;23.374;2023-03-15T12:56:17;93197.38;;;17.65;26.99
27958;BME280;15295;42.658;23.374;2023-03-15T12:58:52;93195.38;;;17.65;26.86
27958;BME280;15295;42.658;23.374;2023-03-15T13:01:18;93195.56;;;17.62;27.11
27958;BME280;15295;42.658;23.374;2023-03-15T13:03:44;93186.88;;;17.69;27.04
27958;BME280;15295;42.658;23.374;2023-03-15T13:12:36;93196.16;;;17.66;27.12
27958;BME280;15295;42.658;23.374;2023-03-15T13:14:49;93188.03;;;17.62;27.18
27958;BME280;15295;42.658;23.374;2023-03-15T13:17:28;93198.72;;;17.69;27.12
27958;BME280;15295;42.658;23.374;2023-03-15T13:22:54;93198.41;;;17.82;27.30
27958;BME280;15295;42.658;23.374;2023-03-15T13:25:31;93179.72;;;17.77;27.11
27958;BME280;15295;42.658;23.374;2023-03-15T13:28:01;93199.84;;;17.92;27.13
27958;BME280;15295;42.658;23.374;2023-03-15T13:30:36;93203.56;;;17.89;28.09
27958;BME280;15295;42.658;23.374;2023-03-15T13:35:46;93197.06;;;17.92;29.44
27958;BME280;15295;42.658;23.374;2023-03-15T13:38:26;93215.66;;;18.06;29.25
27958;BME280;15295;42.658;23.374;2023-03-15T13:40:53;93200.81;;;18.04;29.47
27958;BME280;15295;42.658;23.374;2023-03-15T13:43:19;93200.59;;;18.07;29.58
27958;BME280;15295;42.658;23.374;2023-03-15T13:45:45;93205.66;;;18.23;29.44
27958;BME280;15295;42.658;23.374;2023-03-15T13:48:11;93208.41;;;18.23;29.51
27958;BME280;15295;42.658;23.374;2023-03-15T13:50:37;93177.16;;;18.03;29.47
27958;BME280;15295;42.658;23.374;2023-03-15T13:53:03;93203.06;;;18.20;29.22
27958;BME280;15295;42.658;23.374;2023-03-15T13:55:33;93195.19;;;18.13;29.31
27958;BME280;15295;42.658;23.374;2023-03-15T13:58:05;93199.38;;;18.08;29.32
27958;BME280;15295;42.658;23.374;2023-03-15T14:00:35;93203.19;;;17.96;29.51
27958;BME280;15295;42.658;23.374;2023-03-15T14:03:13;93201.56;;;18.04;29.46
27958;BME280;15295;42.658;23.374;2023-03-15T14:05:46;93205.25;;;18.16;29.04
27958;BME280;15295;42.658;23.374;2023-03-15T14:08:38;93202.50;;;18.16;28.93
27958;BME280;15295;42.658;23.374;2023-03-15T14:11:17;93199.09;;;18.06;28.93
27958;BME280;15295;42.658;23.374;2023-03-15T14:13:59;93186.50;;;18.05;28.82
27958;BME280;15295;42.658;23.374;2023-03-15T14:16:39;93196.78;;;18.19;28.82
27958;BME280;15295;42.658;23.374;2023-03-15T14:19:18;93207.19;;;18.10;28.82
27958;BME280;15295;42.658;23.374;2023-03-15T14:21:46;93183.44;;;18.03;28.82
27958;BME280;15295;42.658;23.374;2023-03-15T14:24:45;93202.31;;;18.19;28.82
27958;BME280;15295;42.658;23.374;2023-03-15T14:27:36;93204.97;;;18.14;28.63
27958;BME280;15295;42.658;23.374;2023-03-15T14:30:20;93198.13;;;18.09;28.54